Time;durP1;ratioP1;P1;durP2;ratioP2;P2;SDS_P1;SDS_P2;PMS_P1;PMS_P2;Temp;Humidity;BMP_temperature;BMP_pressure;BME280_temperature;BME280_humidity;BME280_pressure;Samples;Min_cycle;Max_cycle;Signal;HPM_P1;HPM_P2
2022/07/03 00:02:08;;;;;;;7.07;2.03;;;;;;;14.38;100.00;99136.72;4904195;29;20454;-87
2022/07/03 00:04:34;;;;;;;5.70;1.92;;;;;;;14.63;100.00;99135.88;4906651;29;20037;-86
2022/07/03 00:07:00;;;;;;;8.80;2.42;;;;;;;14.37;100.00;99133.28;4902599;29;20055;-85
2022/07/03 00:09:25;;;;;;;9.70;2.40;;;;;;;14.42;100.00;99141.38;4877227;29;20036;-86
2022/07/03 00:11:51;;;;;;;9.20;2.63;;;;;;;14.64;100.00;99137.50;4885066;29;20487;-86
2022/07/03 00:14:17;;;;;;;6.78;2.13;;;;;;;14.48;100.00;99144.97;4875645;29;20063;-86
2022/07/03 00:16:43;;;;;;;8.43;1.83;;;;;;;14.34;100.00;99144.25;4884874;29;20044;-86
2022/07/03 00:19:09;;;;;;;8.40;2.58;;;;;;;14.52;100.00;99137.41;4888092;29;20052;-89
2022/07/03 00:21:44;;;;;;;9.30;2.40;;;;;;;14.38;100.00;99134.91;4904491;29;20099;-87
2022/07/03 00:24:22;;;;;;;8.52;1.75;;;;;;;14.26;100.00;99136.63;4883877;29;20542;-86
2022/07/03 00:26:51;;;;;;;8.38;2.17;;;;;;;14.22;100.00;99140.72;4885548;29;20035;-87
2022/07/03 00:29:19;;;;;;;6.00;2.15;;;;;;;14.30;100.00;99145.72;4902329;29;20119;-86
2022/07/03 00:31:46;;;;;;;9.80;2.78;;;;;;;14.25;100.00;99142.94;4906256;29;20047;-87
2022/07/03 00:34:15;;;;;;;8.13;2.47;;;;;;;14.09;100.00;99141.66;4900978;29;20153;-88
2022/07/03 00:36:41;;;;;;;5.50;2.28;;;;;;;13.98;100.00;99151.06;4908000;29;20518;-89
2022/07/03 00:39:08;;;;;;;6.95;2.10;;;;;;;13.92;100.00;99141.34;4888443;29;20039;-87
2022/07/03 00:41:37;;;;;;;10.27;2.15;;;;;;;13.90;100.00;99136.31;4906171;29;20036;-86
2022/07/03 00:44:04;;;;;;;11.32;2.90;;;;;;;13.87;100.00;99143.81;4888766;29;20028;-87
2022/07/03 00:46:32;;;;;;;7.43;2.80;;;;;;;13.77;100.00;99142.47;4906041;29;20773;-87
2022/07/03 00:48:59;;;;;;;5.03;2.13;;;;;;;14.12;100.00;99142.00;4906567;29;20037;-87
2022/07/03 00:51:29;;;;;;;5.95;2.50;;;;;;;14.03;100.00;99145.94;4906805;29;20025;-87
2022/07/03 00:53:58;;;;;;;5.20;2.38;;;;;;;13.98;100.00;99140.50;4908046;29;20059;-86
2022/07/03 00:56:28;;;;;;;5.25;2.45;;;;;;;13.75;100.00;99133.94;4884944;29;20029;-88
2022/07/03 00:58:59;;;;;;;10.20;2.85;;;;;;;13.96;100.00;99143.34;4890049;29;20049;-86
2022/07/03 01:01:34;;;;;;;9.43;2.38;;;;;;;13.95;100.00;99141.75;4904784;29;20029;-87
2022/07/03 01:04:07;;;;;;;4.28;2.08;;;;;;;13.91;100.00;99145.84;4888727;29;20041;-86
2022/07/03 01:06:46;;;;;;;8.82;2.15;;;;;;;13.92;100.00;99136.06;4887693;29;20032;-87
2022/07/03 01:09:12;;;;;;;10.90;2.75;;;;;;;14.02;100.00;99135.59;4887122;29;20123;-86
2022/07/03 01:11:48;;;;;;;8.77;2.03;;;;;;;14.00;100.00;99149.03;4873432;29;20029;-87
2022/07/03 01:14:37;;;;;;;6.88;2.03;;;;;;;14.10;100.00;99146.69;4903952;29;20508;-87
2022/07/03 01:17:05;;;;;;;9.25;2.17;;;;;;;14.01;100.00;99150.63;4903881;29;20076;-86
2022/07/03 01:19:42;;;;;;;8.13;2.30;;;;;;;14.11;100.00;99148.31;4905274;29;20036;-87
2022/07/03 01:22:32;;;;;;;6.68;2.33;;;;;;;14.04;100.00;99146.75;4906824;29;20039;-87
2022/07/03 01:25:22;;;;;;;7.97;2.78;;;;;;;13.83;100.00;99146.91;4908643;29;20048;-88
2022/07/03 01:28:00;;;;;;;7.28;2.60;;;;;;;14.14;100.00;99153.16;4908628;29;20468;-87
2022/07/03 01:30:31;;;;;;;6.00;2.28;;;;;;;14.02;100.00;99144.34;4905493;29;20048;-87
2022/07/03 01:33:03;;;;;;;10.80;2.50;;;;;;;14.21;100.00;99145.19;4891563;29;20032;-88
2022/07/03 01:35:34;;;;;;;7.22;2.50;;;;;;;14.15;100.00;99140.78;4907607;29;20118;-87
2022/07/03 01:38:08;;;;;;;8.07;2.33;;;;;;;13.71;100.00;99143.31;4889873;29;20111;-87
2022/07/03 01:40:36;;;;;;;8.85;2.80;;;;;;;13.39;100.00;99145.91;4890421;29;20561;-87
2022/07/03 01:43:04;;;;;;;8.68;2.70;;;;;;;13.77;100.00;99139.84;4893322;29;20047;-87
2022/07/03 01:45:32;;;;;;;8.27;3.10;;;;;;;14.13;100.00;99140.97;4905720;29;20071;-88
2022/07/03 01:48:00;;;;;;;9.43;2.90;;;;;;;14.16;100.00;99136.31;4887971;29;20377;-87
2022/07/03 01:50:28;;;;;;;11.05;2.60;;;;;;;14.14;100.00;99134.69;4910846;29;20032;-88
2022/07/03 01:52:56;;;;;;;8.68;2.60;;;;;;;14.07;100.00;99141.06;4908741;29;20032;-86
2022/07/03 01:55:23;;;;;;;8.80;2.60;;;;;;;14.00;100.00;99138.47;4874111;29;20541;-87
2022/07/03 01:57:50;;;;;;;9.15;2.78;;;;;;;13.92;100.00;99141.34;4909984;29;20471;-87
2022/07/03 02:00:19;;;;;;;8.38;2.53;;;;;;;13.85;100.00;99131.66;4893785;29;20031;-87
2022/07/03 02:03:06;;;;;;;5.57;2.33;;;;;;;14.12;100.00;99139.38;4908608;29;20044;-86
2022/07/03 02:05:44;;;;;;;10.50;2.33;;;;;;;14.12;100.00;99139.38;4907690;29;20071;-87
2022/07/03 02:08:38;;;;;;;10.27;2.78;;;;;;;13.93;100.00;99132.41;4905496;29;20115;-86
2022/07/03 02:11:09;;;;;;;7.88;2.80;;;;;;;13.54;100.00;99135.91;4908119;29;20032;-86
2022/07/03 02:13:44;;;;;;;7.30;2.22;;;;;;;13.80;100.00;99128.84;4907678;29;20048;-87
2022/07/03 02:16:17;;;;;;;9.48;2.22;;;;;;;13.60;100.00;99136.09;4901009;29;20037;-86
2022/07/03 02:18:43;;;;;;;11.93;2.80;;;;;;;13.66;100.00;99124.69;4904200;29;20039;-86
2022/07/03 02:21:18;;;;;;;9.48;2.75;;;;;;;13.73;100.00;99128.06;4889598;29;20036;-87
2022/07/03 02:24:03;;;;;;;7.63;3.00;;;;;;;13.77;100.00;99129.28;4911936;29;20440;-87
2022/07/03 02:26:39;;;;;;;10.38;2.47;;;;;;;13.53;100.00;99117.66;4876333;29;20036;-87
2022/07/03 02:29:07;;;;;;;9.98;2.50;;;;;;;13.45;100.00;99121.34;4910481;29;20024;-88
2022/07/03 02:31:44;;;;;;;11.10;2.45;;;;;;;13.50;100.00;99113.59;4907072;29;20145;-87
2022/07/03 02:34:15;;;;;;;7.57;2.08;;;;;;;13.66;100.00;99122.88;4905070;29;20036;-87
2022/07/03 02:36:45;;;;;;;8.82;2.22;;;;;;;13.48;100.00;99125.41;4889920;29;20029;-88
2022/07/03 02:39:19;;;;;;;10.60;2.80;;;;;;;13.52;100.00;99111.56;4906606;29;20028;-87
2022/07/03 02:41:58;;;;;;;9.07;2.35;;;;;;;13.66;100.00;99116.78;4907469;29;20040;-88
2022/07/03 02:44:31;;;;;;;6.53;2.38;;;;;;;13.68;100.00;99125.28;4890602;29;20048;-87
2022/07/03 02:47:20;;;;;;;8.45;2.60;;;;;;;13.40;100.00;99129.06;4909827;29;20088;-88
2022/07/03 02:50:06;;;;;;;6.90;2.10;;;;;;;13.40;100.00;99124.59;4907774;29;20387;-88
2022/07/03 02:52:38;;;;;;;6.82;2.13;;;;;;;13.50;100.00;99132.06;4907786;29;20040;-87
2022/07/03 02:55:38;;;;;;;8.05;2.55;;;;;;;13.52;100.00;99143.22;4903403;29;20043;-86
2022/07/03 02:58:11;;;;;;;6.32;2.60;;;;;;;13.66;100.00;99127.31;4906154;29;20427;-87
2022/07/03 03:00:42;;;;;;;7.63;2.45;;;;;;;13.55;100.00;99126.97;4908809;29;20060;-87
2022/07/03 03:03:08;;;;;;;9.10;2.35;;;;;;;13.68;100.00;99126.09;4890274;29;20036;-89
2022/07/03 03:05:48;;;;;;;7.38;2.25;;;;;;;13.66;100.00;99127.31;4907093;29;20392;-88
2022/07/03 03:08:36;;;;;;;9.25;2.38;;;;;;;13.63;100.00;99128.53;4903578;29;20423;-87
2022/07/03 03:11:08;;;;;;;10.13;3.63;;;;;;;13.40;100.00;99136.97;4905172;29;20473;-87
2022/07/03 03:13:34;;;;;;;8.15;2.30;;;;;;;13.41;100.00;99142.03;4888822;29;20083;-88
2022/07/03 03:16:11;;;;;;;4.57;2.67;;;;;;;13.26;100.00;99134.38;4905635;29;20060;-87
2022/07/03 03:18:41;;;;;;;6.03;2.65;;;;;;;13.34;100.00;99135.16;4902958;29;20063;-88
2022/07/03 03:21:15;;;;;;;9.15;2.70;;;;;;;13.45;100.00;99134.53;4893587;29;20039;-88
2022/07/03 03:23:50;;;;;;;5.63;2.15;;;;;;;13.55;100.00;99140.16;4893447;29;20546;-87
2022/07/03 03:26:23;;;;;;;5.95;2.55;;;;;;;13.51;100.00;99138.97;4903672;29;20040;-87
2022/07/03 03:28:50;;;;;;;9.13;2.33;;;;;;;13.50;100.00;99139.97;4889830;29;20095;-87
2022/07/03 03:31:18;;;;;;;6.97;2.88;;;;;;;13.66;100.00;99129.97;4906962;29;20035;-88
2022/07/03 03:33:46;;;;;;;8.18;2.47;;;;;;;13.59;100.00;99147.66;4891362;29;20048;-87
2022/07/03 03:36:15;;;;;;;8.93;2.90;;;;;;;13.85;100.00;99131.66;4882568;29;20060;-89
2022/07/03 03:38:41;;;;;;;5.28;2.40;;;;;;;14.09;100.00;99136.38;4891555;29;20037;-89
2022/07/03 03:41:07;;;;;;;6.15;2.47;;;;;;;14.00;100.00;99133.19;4908385;29;20032;-89
2022/07/03 03:43:33;;;;;;;8.73;2.20;;;;;;;14.10;100.00;99148.53;4891479;29;20055;-86
2022/07/03 03:46:00;;;;;;;6.63;2.35;;;;;;;14.10;100.00;99141.41;4904897;29;20068;-88
2022/07/03 03:48:27;;;;;;;8.02;2.50;;;;;;;14.18;100.00;99136.91;4890931;29;20036;-88
2022/07/03 03:50:52;;;;;;;4.60;1.75;;;;;;;14.47;100.00;99139.91;4906878;29;20044;-88
2022/07/03 03:53:19;;;;;;;8.40;2.10;;;;;;;14.62;100.00;99140.38;4905356;29;20102;-87
2022/07/03 03:56:00;;;;;;;5.72;2.15;;;;;;;14.68;100.00;99147.41;4892204;29;20454;-88
2022/07/03 03:58:26;;;;;;;6.40;2.08;;;;;;;14.75;100.00;99149.22;4887119;29;20360;-88
2022/07/03 04:00:56;;;;;;;5.53;2.10;;;;;;;14.82;100.00;99145.47;4905680;29;20052;-87
2022/07/03 04:03:22;;;;;;;6.60;2.40;;;;;;;14.90;100.00;99147.00;4903894;29;20103;-87
2022/07/03 04:05:54;;;;;;;6.60;2.25;;;;;;;15.01;100.00;99142.03;4906336;29;20491;-87
2022/07/03 04:08:21;;;;;;;5.18;2.55;;;;;;;14.84;100.00;99134.69;4906106;29;20087;-88
2022/07/03 04:10:47;;;;;;;6.28;2.47;;;;;;;14.96;100.00;99140.03;4889212;29;20439;-88
2022/07/03 04:13:14;;;;;;;7.05;2.47;;;;;;;14.97;100.00;99147.75;4907162;29;20627;-88
2022/07/03 04:15:40;;;;;;;5.32;2.42;;;;;;;15.20;100.00;99140.16;4904684;29;20029;-86
2022/07/03 04:18:06;;;;;;;6.18;2.25;;;;;;;15.39;100.00;99154.19;4902758;29;20039;-88
2022/07/03 04:20:31;;;;;;;8.45;2.40;;;;;;;15.44;100.00;99154.31;4903510;29;20024;-88
2022/07/03 04:22:58;;;;;;;11.77;2.72;;;;;;;15.48;100.00;99152.84;4908746;29;20043;-88
2022/07/03 04:25:24;;;;;;;8.52;2.53;;;;;;;15.25;100.00;99158.84;4905913;29;20039;-88
2022/07/03 04:27:49;;;;;;;7.20;2.45;;;;;;;15.18;100.00;99153.63;4906910;29;20402;-87
2022/07/03 04:30:15;;;;;;;7.28;2.60;;;;;;;15.39;100.00;99157.63;4905962;29;20055;-88
2022/07/03 04:32:40;;;;;;;12.52;3.20;;;;;;;15.34;100.00;99161.97;4908401;29;20028;-88
2022/07/03 04:35:07;;;;;;;7.13;2.50;;;;;;;15.66;100.00;99159.09;4888491;29;20491;-89
2022/07/03 04:37:33;;;;;;;10.70;2.50;;;;;;;15.87;100.00;99170.22;4904727;29;20483;-88
2022/07/03 04:39:59;;;;;;;6.95;2.75;;;;;;;15.94;100.00;99169.13;4902263;29;20115;-88
2022/07/03 04:42:24;;;;;;;7.95;2.58;;;;;;;15.97;100.00;99173.97;4891707;29;20062;-87
2022/07/03 04:44:50;;;;;;;7.88;3.08;;;;;;;15.81;100.00;99167.44;4906298;29;20051;-87
2022/07/03 04:47:15;;;;;;;7.40;2.85;;;;;;;16.00;100.00;99164.78;4901752;29;20466;-86
2022/07/03 04:49:42;;;;;;;8.45;3.28;;;;;;;15.48;100.00;99178.50;4906853;29;20044;-86
2022/07/03 04:52:08;;;;;;;10.68;4.20;;;;;;;15.83;100.00;99165.38;4905489;29;20052;-87
2022/07/03 04:54:34;;;;;;;5.57;3.17;;;;;;;16.18;100.00;99163.06;4910834;29;20032;-87
2022/07/03 04:57:00;;;;;;;10.85;3.85;;;;;;;15.98;100.00;99172.13;4911665;29;20035;-86
2022/07/03 04:59:26;;;;;;;12.65;4.53;;;;;;;15.84;100.00;99172.28;4906685;29;20043;-86
2022/07/03 05:01:51;;;;;;;10.32;3.60;;;;;;;15.85;100.00;99167.81;4907554;29;20138;-86
2022/07/03 05:04:17;;;;;;;9.25;4.32;;;;;;;16.05;100.00;99167.53;4897627;29;20028;-87
2022/07/03 05:06:43;;;;;;;8.20;3.90;;;;;;;16.42;100.00;99172.66;4911439;29;20043;-87
2022/07/03 05:09:08;;;;;;;4.45;3.13;;;;;;;16.72;100.00;99189.47;4910329;29;20499;-89
2022/07/03 05:11:35;;;;;;;8.95;3.65;;;;;;;16.86;100.00;99184.72;4903445;29;20098;-87
2022/07/03 05:14:02;;;;;;;7.82;3.58;;;;;;;16.93;100.00;99188.09;4906458;29;20040;-86
2022/07/03 05:16:28;;;;;;;7.97;3.10;;;;;;;16.98;100.00;99184.72;4910736;29;20444;-87
2022/07/03 05:18:53;;;;;;;7.70;3.50;;;;;;;16.93;100.00;99192.56;4911262;29;20037;-87
2022/07/03 05:21:19;;;;;;;10.07;2.97;;;;;;;16.93;100.00;99189.91;4910639;29;20474;-88
2022/07/03 05:23:45;;;;;;;7.65;3.58;;;;;;;17.08;100.00;99192.94;4912560;29;20156;-87
2022/07/03 05:26:11;;;;;;;4.63;2.53;;;;;;;17.16;100.00;99186.44;4892807;29;20111;-87
2022/07/03 05:28:37;;;;;;;9.63;2.83;;;;;;;17.04;100.00;99194.44;4904981;29;20029;-87
2022/07/03 05:31:03;;;;;;;6.53;1.90;;;;;;;16.96;100.00;99187.63;4893674;29;20475;-88
2022/07/03 05:33:29;;;;;;;9.30;2.47;;;;;;;16.59;100.00;99182.56;4911289;29;20479;-88
2022/07/03 05:35:58;;;;;;;4.20;2.00;;;;;;;16.25;100.00;99190.25;4906250;29;20104;-88
2022/07/03 05:41:10;;;;;;;5.40;2.25;;;;;;;15.91;100.00;99189.94;4911479;29;20028;-87
2022/07/03 05:43:35;;;;;;;9.55;2.13;;;;;;;16.11;100.00;99193.13;4908778;29;20115;-88
2022/07/03 05:46:01;;;;;;;8.63;2.30;;;;;;;16.09;100.00;99195.16;4908847;29;20079;-87
2022/07/03 05:48:26;;;;;;;10.25;2.03;;;;;;;16.33;100.00;99195.22;4895457;29;20068;-88
2022/07/03 05:50:52;;;;;;;10.85;2.75;;;;;;;16.41;100.00;99205.47;4894512;29;20028;-88
2022/07/03 05:53:18;;;;;;;6.15;2.42;;;;;;;16.52;100.00;99208.38;4912559;29;20024;-88
2022/07/03 05:55:43;;;;;;;6.07;2.53;;;;;;;16.31;100.00;99213.19;4910041;29;20028;-88
2022/07/03 05:58:09;;;;;;;10.05;2.45;;;;;;;16.62;100.00;99208.59;4910184;29;20032;-88
2022/07/03 06:00:35;;;;;;;7.80;3.33;;;;;;;17.01;100.00;99208.16;4894087;29;20102;-87
2022/07/03 06:03:01;;;;;;;7.75;2.50;;;;;;;17.14;100.00;99209.75;4909817;29;20394;-88
2022/07/03 06:05:28;;;;;;;7.05;2.40;;;;;;;17.39;100.00;99206.00;4906473;29;20110;-87
2022/07/03 06:07:54;;;;;;;6.55;2.72;;;;;;;17.53;100.00;99207.34;4910750;29;20043;-87
2022/07/03 06:10:20;;;;;;;6.30;2.95;;;;;;;17.75;100.00;99201.38;4906620;29;20044;-88
2022/07/03 06:12:45;;;;;;;5.90;2.70;;;;;;;17.79;100.00;99205.16;4889583;29;20412;-87
2022/07/03 06:15:11;;;;;;;11.57;2.80;;;;;;;18.16;100.00;99205.81;4906623;29;20084;-88
2022/07/03 06:17:37;;;;;;;10.30;2.72;;;;;;;18.41;99.16;99194.78;4906941;29;20032;-89
2022/07/03 06:20:06;;;;;;;7.93;2.53;;;;;;;18.51;98.39;99205.56;4889171;29;20104;-84
2022/07/03 06:22:33;;;;;;;14.65;6.43;;;;;;;18.54;98.04;99213.03;4906733;29;20040;-83
2022/07/03 06:24:58;;;;;;;21.98;6.90;;;;;;;17.41;100.00;99210.03;4890506;29;20052;-84
2022/07/03 06:27:24;;;;;;;13.63;7.47;;;;;;;17.50;100.00;99189.25;4907104;29;20028;-90
2022/07/03 06:29:50;;;;;;;19.15;8.23;;;;;;;18.13;100.00;99210.56;4889161;29;20032;-88
2022/07/03 06:32:16;;;;;;;22.70;9.18;;;;;;;18.25;100.00;99207.00;4889990;29;20032;-87
2022/07/03 06:34:44;;;;;;;12.98;7.63;;;;;;;18.04;100.00;99214.63;4878114;29;20052;-90
2022/07/03 06:37:13;;;;;;;11.70;6.60;;;;;;;18.35;100.00;99209.84;4891546;29;20041;-87
2022/07/03 06:43:25;;;;;;;12.00;7.15;;;;;;;18.88;99.39;99200.75;4904235;29;20146;-88
2022/07/03 06:46:42;;;;;;;12.45;6.72;;;;;;;18.63;100.00;99212.66;4896876;29;20035;-88
2022/07/03 06:49:08;;;;;;;11.63;6.28;;;;;;;19.08;98.56;99210.91;4869101;29;20491;-87
2022/07/03 06:51:35;;;;;;;13.70;6.47;;;;;;;19.03;98.65;99208.16;4869360;29;20068;-86
2022/07/03 06:54:01;;;;;;;7.85;5.43;;;;;;;19.13;97.57;99217.06;4905070;29;20114;-86
2022/07/03 06:56:28;;;;;;;10.65;5.53;;;;;;;18.81;97.71;99209.72;4888056;29;20028;-87
2022/07/03 06:58:54;;;;;;;10.45;5.25;;;;;;;18.90;98.26;99207.47;4902068;29;20036;-88
2022/07/03 07:01:20;;;;;;;19.25;9.27;;;;;;;18.67;98.53;99222.56;4910947;29;20382;-86
2022/07/03 07:03:45;;;;;;;13.80;9.38;;;;;;;18.47;99.40;99222.22;4907519;29;20028;-87
2022/07/03 07:06:11;;;;;;;11.98;6.85;;;;;;;18.41;99.63;99226.69;4908250;29;20491;-87
2022/07/03 07:08:37;;;;;;;12.98;8.02;;;;;;;18.16;99.97;99227.06;4871279;29;20092;-86
2022/07/03 07:11:29;;;;;;;16.13;8.50;;;;;;;18.29;100.00;99229.41;4879527;29;20036;-86
2022/07/03 07:13:55;;;;;;;17.60;8.00;;;;;;;17.77;100.00;99220.53;4910250;29;20053;-90
2022/07/03 07:16:20;;;;;;;15.32;7.95;;;;;;;18.06;100.00;99217.84;4906256;29;20488;-89
2022/07/03 07:18:45;;;;;;;12.20;6.68;;;;;;;18.51;100.00;99231.34;4871272;29;20406;-88
2022/07/03 07:21:11;;;;;;;18.30;11.15;;;;;;;17.70;100.00;99233.94;4890216;29;20032;-88
2022/07/03 07:23:37;;;;;;;16.52;9.85;;;;;;;18.20;100.00;99230.84;4905759;29;20108;-90
2022/07/03 07:26:04;;;;;;;12.82;8.90;;;;;;;18.54;100.00;99221.03;4875024;29;20041;-88
2022/07/03 07:28:30;;;;;;;16.77;9.38;;;;;;;18.91;100.00;99235.66;4896421;29;20483;-84
2022/07/03 07:30:57;;;;;;;14.60;8.68;;;;;;;19.19;98.68;99225.16;4910408;29;20115;-88
2022/07/03 07:33:23;;;;;;;12.30;8.90;;;;;;;19.13;98.57;99226.94;4904788;29;20048;-88
2022/07/03 07:35:52;;;;;;;9.02;7.53;;;;;;;19.58;98.09;99225.06;4887935;29;20056;-89
2022/07/03 07:38:18;;;;;;;9.82;7.00;;;;;;;19.50;97.50;99218.34;4885347;29;20060;-87
2022/07/03 07:40:43;;;;;;;8.30;6.90;;;;;;;19.39;98.36;99219.25;4904225;29;20064;-88
2022/07/03 07:43:12;;;;;;;11.40;6.53;;;;;;;19.35;97.71;99228.78;4890079;29;20024;-87
2022/07/03 07:45:38;;;;;;;8.90;7.05;;;;;;;19.63;97.52;99230.44;4887754;29;20072;-87
2022/07/03 07:48:04;;;;;;;10.70;6.72;;;;;;;19.90;96.84;99239.50;4905405;29;20037;-86
2022/07/03 07:50:33;;;;;;;15.05;6.85;;;;;;;19.88;96.36;99225.66;4874715;29;20036;-87
2022/07/03 07:53:04;;;;;;;10.00;6.18;;;;;;;19.89;96.21;99229.91;4902724;29;20391;-85
2022/07/03 07:55:39;;;;;;;7.32;5.93;;;;;;;19.45;97.96;99233.44;4891056;29;20031;-85
2022/07/03 07:58:04;;;;;;;14.80;5.20;;;;;;;19.59;97.35;99234.66;4904845;29;20080;-87
2022/07/03 08:00:30;;;;;;;7.13;5.18;;;;;;;19.89;96.97;99233.38;4894262;29;20087;-88
2022/07/03 08:05:39;;;;;;;6.90;4.72;;;;;;;20.16;96.28;99245.09;4899904;29;20044;-86
2022/07/03 08:08:18;;;;;;;5.22;4.60;;;;;;;19.22;99.20;99238.75;4886017;29;20028;-85
2022/07/03 08:10:48;;;;;;;9.07;4.97;;;;;;;19.61;98.74;99237.88;4878216;29;20127;-85
2022/07/03 08:13:15;;;;;;;6.53;4.75;;;;;;;20.41;96.77;99234.66;4901052;29;20107;-85
2022/07/03 08:15:42;;;;;;;6.25;4.80;;;;;;;20.62;95.29;99240.13;4904798;29;20036;-85
2022/07/03 08:18:08;;;;;;;6.68;5.70;;;;;;;20.47;94.07;99240.03;4899675;29;20029;-83
2022/07/03 08:20:35;;;;;;;6.03;5.35;;;;;;;21.34;92.75;99238.94;4903555;29;20036;-81
2022/07/03 08:23:01;;;;;;;5.57;4.88;;;;;;;21.40;91.87;99243.25;4903410;29;20090;-82
2022/07/03 08:25:27;;;;;;;6.90;4.20;;;;;;;21.44;90.00;99236.34;4888052;29;20115;-82
2022/07/03 08:27:53;;;;;;;5.47;4.28;;;;;;;21.33;90.63;99248.03;4906046;29;20047;-83
2022/07/03 08:30:19;;;;;;;6.18;4.47;;;;;;;20.44;92.91;99248.53;4886994;29;20036;-83
2022/07/03 08:32:49;;;;;;;5.10;4.60;;;;;;;20.89;91.61;99259.81;4881697;29;20108;-83
2022/07/03 08:35:15;;;;;;;4.97;4.32;;;;;;;20.15;92.76;99249.66;4886443;29;20036;-85
2022/07/03 08:37:42;;;;;;;8.93;4.60;;;;;;;20.08;93.70;99257.03;4900025;29;20395;-85
2022/07/03 08:40:09;;;;;;;5.10;4.60;;;;;;;19.61;93.89;99263.69;4885447;29;20104;-82
2022/07/03 08:42:37;;;;;;;6.63;4.25;;;;;;;19.81;93.92;99253.25;4902572;29;20036;-82
2022/07/03 08:45:04;;;;;;;5.50;5.00;;;;;;;19.70;93.86;99263.00;4880427;29;20037;-81
2022/07/03 08:47:32;;;;;;;8.60;4.38;;;;;;;20.58;92.96;99260.38;4901198;29;20116;-80
2022/07/03 08:50:00;;;;;;;4.93;4.30;;;;;;;20.30;92.04;99262.28;4905901;29;20039;-81
2022/07/03 08:52:26;;;;;;;4.30;3.88;;;;;;;20.68;91.28;99260.47;4899649;29;20040;-81
2022/07/03 08:54:51;;;;;;;6.25;4.03;;;;;;;20.92;89.57;99270.78;4906409;29;20029;-82
2022/07/03 08:57:18;;;;;;;4.28;3.88;;;;;;;20.63;90.32;99268.41;4902019;29;20040;-82
2022/07/03 08:59:49;;;;;;;6.53;4.35;;;;;;;20.72;88.89;99260.72;4905392;29;20042;-80
2022/07/03 09:02:16;;;;;;;8.70;4.00;;;;;;;20.71;89.22;99277.78;4898905;29;20033;-83
2022/07/03 09:04:42;;;;;;;5.38;3.92;;;;;;;20.66;88.80;99278.59;4903041;29;20033;-83
2022/07/03 09:07:08;;;;;;;5.18;3.92;;;;;;;20.41;88.88;99273.84;4904781;29;20686;-85
2022/07/03 09:09:33;;;;;;;7.63;3.80;;;;;;;20.48;89.11;99281.63;4869090;29;20040;-83
2022/07/03 09:11:59;;;;;;;3.60;3.30;;;;;;;20.54;89.02;99280.59;4898633;29;20092;-82
2022/07/03 09:14:25;;;;;;;4.05;3.65;;;;;;;20.80;88.65;99281.63;4901719;29;20459;-84
2022/07/03 09:16:50;;;;;;;5.78;3.10;;;;;;;21.43;86.69;99284.66;4910408;29;20040;-83
2022/07/03 09:19:47;;;;;;;4.10;3.70;;;;;;;21.00;86.37;99288.16;4884473;29;20036;-82
2022/07/03 09:22:33;;;;;;;5.40;3.67;;;;;;;21.50;86.35;99286.03;4904440;29;20047;-82
2022/07/03 09:25:16;;;;;;;4.65;3.67;;;;;;;20.53;88.42;99293.13;4906781;29;20044;-80
2022/07/03 09:27:52;;;;;;;5.60;4.13;;;;;;;20.51;89.24;99286.47;4906335;29;20047;-83
2022/07/03 09:30:20;;;;;;;7.57;3.92;;;;;;;20.50;89.80;99284.84;4906601;29;20032;-84
2022/07/03 09:32:49;;;;;;;7.30;3.72;;;;;;;20.95;89.16;99296.94;4908018;29;20055;-84
2022/07/03 09:35:22;;;;;;;3.22;2.92;;;;;;;21.60;87.45;99287.94;4886291;29;20477;-85
2022/07/03 09:38:01;;;;;;;4.20;3.28;;;;;;;21.49;87.04;99280.94;4883917;29;20021;-85
2022/07/03 09:40:46;;;;;;;3.63;2.90;;;;;;;21.05;86.58;99290.06;4904769;29;20033;-85
2022/07/03 09:43:11;;;;;;;3.28;2.95;;;;;;;21.17;88.15;99301.34;4907453;29;20088;-86
2022/07/03 09:45:56;;;;;;;3.25;2.95;;;;;;;21.68;86.40;99308.03;4910211;29;20483;-85
2022/07/03 09:48:34;;;;;;;5.10;3.20;;;;;;;21.53;86.92;99306.84;4901850;29;20033;-86
2022/07/03 09:51:15;;;;;;;5.82;3.30;;;;;;;21.01;87.62;99310.31;4909740;29;20037;-85
2022/07/03 09:53:54;;;;;;;2.92;2.72;;;;;;;21.30;87.01;99302.75;4908347;29;20036;-85
2022/07/03 09:56:21;;;;;;;3.60;3.03;;;;;;;21.30;87.08;99320.63;4910080;29;20032;-86
2022/07/03 09:59:04;;;;;;;3.97;2.50;;;;;;;22.10;84.59;99304.41;4891578;29;20395;-84
2022/07/03 10:01:32;;;;;;;3.42;2.90;;;;;;;21.42;84.95;99299.88;4906124;29;20510;-85
2022/07/03 10:04:11;;;;;;;4.03;2.83;;;;;;;21.10;86.15;99311.44;4908591;29;20032;-85
2022/07/03 10:06:48;;;;;;;3.47;2.70;;;;;;;21.59;85.37;99304.19;4905953;29;20032;-84
2022/07/03 10:09:20;;;;;;;2.95;2.45;;;;;;;21.61;85.17;99310.91;4908917;29;20056;-86
2022/07/03 10:11:46;;;;;;;4.05;2.53;;;;;;;21.33;85.60;99298.75;4908556;29;20028;-86
2022/07/03 10:14:15;;;;;;;3.72;2.63;;;;;;;20.91;86.26;99306.53;4908240;29;20585;-85
2022/07/03 10:16:47;;;;;;;5.55;3.10;;;;;;;20.12;90.00;99322.91;4905556;29;20032;-84
2022/07/03 10:19:21;;;;;;;3.15;2.35;;;;;;;20.53;89.71;99329.66;4891912;29;20050;-85
2022/07/03 10:21:57;;;;;;;;;;;;;;;19.09;90.65;99332.25;4909459;29;20036;-84
2022/07/03 10:24:24;;;;;;;5.50;2.47;;;;;;;19.69;89.28;99321.84;4906338;29;19915;-85
2022/07/03 10:26:51;;;;;;;3.65;1.95;;;;;;;20.31;86.94;99319.06;4906865;29;20079;-85
2022/07/03 10:29:20;;;;;;;2.55;1.80;;;;;;;20.57;86.31;99314.75;4910306;29;20036;-85
2022/07/03 10:31:49;;;;;;;2.70;1.77;;;;;;;21.17;83.83;99316.56;4906623;29;20452;-85
2022/07/03 10:34:20;;;;;;;4.65;1.80;;;;;;;20.21;84.30;99330.44;4910797;29;20079;-85
2022/07/03 10:36:49;;;;;;;2.42;1.60;;;;;;;20.54;85.23;99328.59;4910470;29;20061;-85
2022/07/03 10:39:48;;;;;;;3.55;2.00;;;;;;;21.07;83.78;99331.44;4887795;29;20060;-85
2022/07/03 10:45:18;;;;;;;4.03;2.10;;;;;;;20.64;85.48;99336.72;4890988;29;20039;-86
2022/07/03 10:47:46;;;;;;;4.68;2.20;;;;;;;20.36;86.13;99348.44;4884731;29;20048;-87
2022/07/03 10:50:19;;;;;;;4.90;2.35;;;;;;;20.55;86.51;99335.56;4906706;29;20071;-85
2022/07/03 10:52:45;;;;;;;3.05;2.20;;;;;;;20.38;87.28;99347.13;4906238;29;20059;-86
2022/07/03 10:55:13;;;;;;;4.28;2.60;;;;;;;21.83;85.15;99337.47;4904057;29;20136;-87
2022/07/03 10:57:40;;;;;;;4.00;2.40;;;;;;;21.73;83.06;99336.63;4907836;29;20471;-85
2022/07/03 11:00:18;;;;;;;3.97;2.25;;;;;;;22.13;82.85;99340.50;4884869;29;20064;-87
2022/07/03 11:02:51;;;;;;;3.08;2.05;;;;;;;22.34;82.24;99341.31;4907323;29;20044;-85
2022/07/03 11:05:18;;;;;;;;;;;;;;;22.11;81.34;99337.28;4888603;29;20048;-85
2022/07/03 11:08:03;;;;;;;2.92;2.38;;;;;;;22.57;80.21;99333.88;4909138;29;19919;-86
2022/07/03 11:10:30;;;;;;;2.88;2.10;;;;;;;22.99;79.55;99328.50;4903971;29;20479;-87
2022/07/03 11:13:17;;;;;;;3.55;2.35;;;;;;;22.66;78.67;99326.94;4890067;29;20049;-86
2022/07/03 11:15:56;;;;;;;3.67;2.20;;;;;;;22.13;79.25;99329.81;4905799;29;20035;-86
2022/07/03 11:18:34;;;;;;;2.88;2.53;;;;;;;22.11;79.92;99332.72;4891095;29;20530;-86
2022/07/03 11:21:05;;;;;;;5.22;2.55;;;;;;;22.19;80.79;99338.63;4906453;29;20036;-86
2022/07/03 11:23:44;;;;;;;3.13;2.40;;;;;;;22.45;78.13;99325.31;4907168;29;20035;-87
2022/07/03 11:26:09;;;;;;;3.45;3.13;;;;;;;21.83;78.20;99342.00;4906967;29;20032;-86
2022/07/03 11:28:35;;;;;;;6.93;2.95;;;;;;;22.39;78.03;99343.22;4876152;29;20111;-86
2022/07/03 11:33:58;;;;;;;3.70;2.78;;;;;;;21.50;79.52;99326.06;4908849;29;20043;-85
2022/07/03 11:36:31;;;;;;;2.92;2.63;;;;;;;21.48;80.11;99330.88;4908430;29;20119;-87
2022/07/03 11:39:00;;;;;;;;;;;;;;;21.64;78.42;99323.72;4890953;29;20087;-86
2022/07/03 11:41:28;;;;;;;3.63;2.40;;;;;;;21.06;78.84;99323.69;4904259;29;19998;-86
2022/07/03 11:43:56;;;;;;;4.15;2.47;;;;;;;21.01;77.81;99332.47;4907633;29;20032;-84
2022/07/03 11:46:26;;;;;;;3.88;2.42;;;;;;;20.85;78.07;99331.56;4903248;29;20132;-86
2022/07/03 11:49:05;;;;;;;4.50;2.40;;;;;;;21.29;77.10;99332.38;4909633;29;20039;-84
2022/07/03 11:51:31;;;;;;;3.22;2.20;;;;;;;21.69;77.78;99326.44;4889094;29;20494;-85
2022/07/03 11:53:58;;;;;;;2.70;2.50;;;;;;;21.95;76.56;99334.56;4887383;29;20029;-85
2022/07/03 11:56:23;;;;;;;2.50;2.30;;;;;;;22.55;74.25;99333.34;4905027;29;20039;-86